Time;durP1;ratioP1;P1;durP2;ratioP2;P2;SDS_P1;SDS_P2;PMS_P1;PMS_P2;Temp;Humidity;BMP_temperature;BMP_pressure;BME280_temperature;BME280_humidity;BME280_pressure;Samples;Min_cycle;Max_cycle;Signal;HPM_P1;HPM_P2
2022/08/17 00:00:39;;;;;;;31.15;26.75;;;20.70;99.90;;;;;;5041578;28;20116;-57
2022/08/17 00:03:23;;;;;;;34.55;28.55;;;20.80;99.90;;;;;;5041913;28;20049;-58
2022/08/17 00:05:59;;;;;;;33.03;29.40;;;20.80;99.90;;;;;;5041281;28;20095;-58
2022/08/17 00:08:28;;;;;;;35.30;29.50;;;20.80;99.90;;;;;;5040136;28;20491;-58
2022/08/17 00:10:55;;;;;;;32.92;29.38;;;20.70;99.90;;;;;;5040670;28;20048;-58
2022/08/17 00:13:34;;;;;;;31.77;28.38;;;20.60;99.90;;;;;;5041794;28;20191;-58
2022/08/17 00:16:07;;;;;;;31.75;27.00;;;20.70;99.90;;;;;;5041791;28;20040;-57
2022/08/17 00:18:34;;;;;;;32.47;28.88;;;20.60;99.90;;;;;;5040758;28;20084;-59
2022/08/17 00:21:02;;;;;;;33.67;28.10;;;20.70;99.90;;;;;;5041630;28;20076;-58
2022/08/17 00:23:28;;;;;;;31.92;27.80;;;20.70;99.90;;;;;;5040329;28;20128;-58
2022/08/17 00:25:54;;;;;;;30.73;27.40;;;20.70;99.90;;;;;;5041829;28;20128;-58
2022/08/17 00:28:20;;;;;;;31.85;27.75;;;20.60;99.90;;;;;;5041549;28;20052;-58
2022/08/17 00:30:47;;;;;;;31.40;27.92;;;20.60;99.90;;;;;;5041764;28;20411;-58
2022/08/17 00:33:19;;;;;;;28.40;25.35;;;20.70;99.90;;;;;;5041169;28;20459;-58
2022/08/17 00:35:47;;;;;;;35.13;29.00;;;20.70;99.90;;;;;;5041556;28;20434;-58
2022/08/17 00:38:13;;;;;;;33.25;29.38;;;20.60;99.90;;;;;;5040850;28;20060;-58
2022/08/17 00:40:44;;;;;;;35.03;28.60;;;20.60;99.90;;;;;;5041041;28;20060;-58
2022/08/17 00:43:20;;;;;;;33.47;28.13;;;20.50;99.90;;;;;;5041499;28;20107;-58
2022/08/17 00:45:47;;;;;;;32.38;28.88;;;20.40;99.90;;;;;;5041281;28;20053;-58
2022/08/17 00:48:14;;;;;;;31.35;28.05;;;20.30;99.90;;;;;;5040681;28;20120;-58
2022/08/17 00:50:56;;;;;;;33.03;29.45;;;20.30;99.90;;;;;;5041639;28;20049;-58
2022/08/17 00:53:23;;;;;;;35.17;28.98;;;20.30;99.90;;;;;;5040553;28;20033;-58
2022/08/17 00:55:49;;;;;;;33.85;28.23;;;20.40;99.90;;;;;;5039932;28;20063;-58
2022/08/17 00:58:15;;;;;;;31.60;28.20;;;20.50;99.90;;;;;;5041465;28;20128;-58
2022/08/17 01:00:42;;;;;;;32.78;29.05;;;20.50;99.90;;;;;;5039784;28;20049;-58
2022/08/17 01:03:15;;;;;;;32.58;28.75;;;20.50;99.90;;;;;;5040735;28;20067;-58
2022/08/17 01:05:42;;;;;;;35.55;30.40;;;20.50;99.90;;;;;;5044151;28;20037;-58
2022/08/17 01:08:11;;;;;;;33.70;30.10;;;20.30;99.90;;;;;;5044149;28;20454;-58
2022/08/17 01:10:45;;;;;;;35.30;31.60;;;20.20;99.90;;;;;;5045017;28;20044;-58
2022/08/17 01:15:48;;;;;;;35.55;30.27;;;20.20;99.90;;;;;;5073542;28;20051;-56
2022/08/17 01:18:15;;;;;;;34.78;30.85;;;20.10;99.90;;;;;;5063301;28;20080;-57
2022/08/17 01:20:47;;;;;;;36.25;31.75;;;20.00;99.90;;;;;;5074736;28;20044;-56
2022/08/17 01:23:12;;;;;;;35.85;30.92;;;20.10;99.90;;;;;;5084930;28;20054;-56
2022/08/17 01:25:40;;;;;;;36.58;32.20;;;20.00;99.90;;;;;;5083694;28;20498;-56
2022/08/17 01:28:06;;;;;;;38.53;31.05;;;20.00;99.90;;;;;;5083837;28;20591;-56
2022/08/17 01:30:31;;;;;;;36.38;30.80;;;20.00;99.90;;;;;;5085548;28;20035;-56
2022/08/17 01:32:57;;;;;;;36.95;32.55;;;19.90;99.90;;;;;;5085536;28;20047;-56
2022/08/17 01:35:23;;;;;;;39.90;33.17;;;19.80;99.90;;;;;;5084675;28;20126;-56
2022/08/17 01:37:48;;;;;;;37.85;32.45;;;19.80;99.90;;;;;;5084765;28;20074;-56
2022/08/17 01:40:14;;;;;;;36.58;32.72;;;19.80;99.90;;;;;;5084609;28;20052;-56
2022/08/17 01:43:10;;;;;;;37.95;33.83;;;19.70;99.90;;;;;;5083729;28;20044;-56
2022/08/17 01:45:43;;;;;;;36.45;32.58;;;19.80;99.90;;;;;;5081958;28;20478;-57
2022/08/17 01:48:11;;;;;;;39.95;33.65;;;19.70;99.90;;;;;;5084917;28;20050;-56
2022/08/17 01:50:40;;;;;;;36.67;32.83;;;19.70;99.90;;;;;;5083111;28;20048;-56
2022/08/17 01:53:23;;;;;;;37.38;33.47;;;19.70;99.90;;;;;;5084489;28;20043;-56
2022/08/17 01:56:10;;;;;;;40.00;34.63;;;19.80;99.90;;;;;;5084909;28;20055;-55
2022/08/17 01:58:36;;;;;;;37.60;33.63;;;19.70;99.90;;;;;;5101025;28;20090;-57
2022/08/17 02:01:04;;;;;;;38.90;34.67;;;19.70;99.90;;;;;;5084903;28;20452;-57
2022/08/17 02:03:31;;;;;;;38.92;34.47;;;19.60;99.90;;;;;;5084101;28;20048;-57
2022/08/17 02:05:57;;;;;;;39.08;33.35;;;19.60;99.90;;;;;;5084019;28;20044;-56
2022/08/17 02:08:23;;;;;;;36.42;32.20;;;19.60;99.90;;;;;;5083304;28;20061;-56
2022/08/17 02:10:50;;;;;;;38.58;32.50;;;19.50;99.90;;;;;;5084544;28;20054;-56
2022/08/17 02:13:16;;;;;;;42.38;33.13;;;19.50;99.90;;;;;;5099476;28;20039;-55
2022/08/17 02:15:42;;;;;;;35.92;32.03;;;19.50;99.90;;;;;;5083320;28;20055;-56
2022/08/17 02:18:09;;;;;;;39.00;33.38;;;19.60;99.90;;;;;;5084119;28;20044;-56
2022/08/17 02:20:37;;;;;;;39.72;34.28;;;19.50;99.90;;;;;;5100181;28;20044;-56
2022/08/17 02:23:07;;;;;;;38.50;34.22;;;19.60;99.90;;;;;;5083890;28;20052;-56
2022/08/17 02:25:34;;;;;;;40.28;32.85;;;19.60;99.90;;;;;;5084541;28;20271;-57
2022/08/17 02:28:00;;;;;;;36.85;32.55;;;19.60;99.90;;;;;;5083078;28;20109;-56
2022/08/17 02:30:26;;;;;;;39.33;33.55;;;19.60;99.90;;;;;;5083302;28;20044;-56
2022/08/17 02:32:53;;;;;;;37.95;33.45;;;19.60;99.90;;;;;;5084158;28;20071;-56
2022/08/17 02:35:21;;;;;;;39.47;34.70;;;19.60;99.90;;;;;;5083943;28;20044;-55
2022/08/17 02:37:47;;;;;;;39.28;34.20;;;19.50;99.90;;;;;;5083248;28;20040;-57
2022/08/17 02:40:14;;;;;;;37.67;33.67;;;19.50;99.90;;;;;;5083482;28;20067;-56
2022/08/17 02:42:42;;;;;;;36.97;32.85;;;19.50;99.90;;;;;;5083740;28;20745;-56
2022/08/17 02:45:11;;;;;;;36.83;32.83;;;19.40;99.90;;;;;;5083561;28;20123;-56
2022/08/17 02:47:39;;;;;;;38.75;34.58;;;19.40;99.90;;;;;;5082239;28;20070;-56
2022/08/17 02:50:06;;;;;;;36.92;32.97;;;19.40;99.90;;;;;;5084202;28;20519;-56
2022/08/17 02:52:36;;;;;;;36.53;32.58;;;19.40;99.90;;;;;;5083757;28;20048;-56
2022/08/17 02:55:09;;;;;;;37.92;33.85;;;19.40;99.90;;;;;;5083012;28;20036;-57
2022/08/17 02:57:35;;;;;;;38.45;34.38;;;19.40;99.90;;;;;;5083865;28;20044;-56
2022/08/17 03:00:05;;;;;;;38.38;34.30;;;19.50;99.90;;;;;;5083771;28;20032;-56
2022/08/17 03:02:40;;;;;;;39.50;34.25;;;19.50;99.90;;;;;;5083455;28;20096;-56
2022/08/17 03:05:07;;;;;;;;;;;19.40;99.90;;;;;;5083102;28;20052;-56
2022/08/17 03:07:33;;;;;;;37.97;33.78;;;19.30;99.90;;;;;;5083040;28;19920;-56
2022/08/17 03:09:58;;;;;;;41.55;35.72;;;19.30;99.90;;;;;;5083131;28;20044;-57
2022/08/17 03:12:30;;;;;;;39.83;34.58;;;19.40;99.90;;;;;;5082740;28;20054;-54
2022/08/17 03:14:56;;;;;;;37.60;33.70;;;19.40;99.90;;;;;;5083357;28;20130;-56
2022/08/17 03:17:21;;;;;;;36.30;32.45;;;19.40;99.90;;;;;;5083132;28;20154;-55
2022/08/17 03:19:47;;;;;;;37.38;33.53;;;19.40;99.90;;;;;;5083014;28;20048;-56
2022/08/17 03:22:13;;;;;;;42.60;32.63;;;19.40;99.90;;;;;;5081377;28;20044;-56
2022/08/17 03:24:38;;;;;;;37.67;33.78;;;19.30;99.90;;;;;;5082451;28;20047;-57
2022/08/17 03:27:04;;;;;;;40.40;33.92;;;19.10;99.90;;;;;;5083051;28;20051;-56
2022/08/17 03:29:30;;;;;;;37.85;33.08;;;19.10;99.90;;;;;;5082036;28;20119;-56
2022/08/17 03:31:55;;;;;;;37.88;33.65;;;19.20;99.90;;;;;;5098546;28;20044;-55
2022/08/17 03:34:21;;;;;;;38.42;34.25;;;19.30;99.90;;;;;;5082645;28;20156;-56
2022/08/17 03:36:46;;;;;;;40.90;33.58;;;19.20;99.90;;;;;;5082822;28;20117;-57
2022/08/17 03:39:12;;;;;;;37.25;33.20;;;19.20;99.90;;;;;;5081763;28;20085;-56
2022/08/17 03:41:38;;;;;;;38.03;34.00;;;19.30;99.90;;;;;;5082583;28;20126;-55
2022/08/17 03:44:03;;;;;;;38.35;34.00;;;19.20;99.90;;;;;;5083108;28;20054;-55
2022/08/17 03:57:42;;;;;;;39.13;34.92;;;19.10;99.90;;;;;;5082160;28;20040;-56
2022/08/17 04:00:08;;;;;;;39.10;34.78;;;19.00;99.90;;;;;;5082412;28;20050;-55
2022/08/17 04:02:35;;;;;;;37.45;33.63;;;19.00;99.90;;;;;;5082880;28;20048;-57
2022/08/17 04:05:01;;;;;;;43.03;36.22;;;19.00;99.90;;;;;;5082286;28;20044;-56
2022/08/17 04:07:28;;;;;;;39.83;34.70;;;19.00;99.90;;;;;;5081339;28;20663;-56
2022/08/17 04:09:54;;;;;;;39.55;34.42;;;19.00;99.90;;;;;;5080966;28;20109;-56
2022/08/17 04:12:21;;;;;;;41.78;35.70;;;19.00;99.90;;;;;;5081888;28;20047;-55
2022/08/17 04:14:47;;;;;;;40.13;35.42;;;18.80;99.90;;;;;;5081645;28;20052;-56
2022/08/17 04:17:13;;;;;;;39.92;35.40;;;18.70;99.90;;;;;;5081068;28;20584;-56
2022/08/17 04:19:39;;;;;;;41.67;35.10;;;18.60;99.90;;;;;;5082068;28;20071;-56
2022/08/17 04:22:05;;;;;;;46.22;34.95;;;18.70;99.90;;;;;;5082149;28;20517;-56
2022/08/17 04:24:32;;;;;;;45.17;36.25;;;18.80;99.90;;;;;;5080600;28;20047;-56
2022/08/17 04:26:58;;;;;;;40.05;35.50;;;18.70;99.90;;;;;;5081910;28;20040;-56
2022/08/17 04:29:24;;;;;;;44.22;37.42;;;18.80;99.90;;;;;;5082060;28;20115;-56
2022/08/17 04:31:51;;;;;;;45.20;38.65;;;18.70;99.90;;;;;;5082289;28;20113;-56
2022/08/17 04:34:18;;;;;;;42.90;37.63;;;18.70;99.90;;;;;;5081721;28;20105;-56
2022/08/17 04:36:44;;;;;;;45.33;38.03;;;18.70;99.90;;;;;;5063485;28;20055;-56
2022/08/17 04:39:10;;;;;;;49.30;40.83;;;18.80;99.90;;;;;;5079826;28;20078;-56
2022/08/17 04:44:20;;;;;;;47.72;34.67;;;18.90;99.90;;;;;;5081856;28;20091;-56
2022/08/17 04:46:46;;;;;;;62.47;34.78;;;18.90;99.90;;;;;;5081920;28;20078;-56
2022/08/17 04:49:12;;;;;;;47.53;31.75;;;18.70;99.90;;;;;;5081288;28;20430;-56
2022/08/17 04:51:43;;;;;;;54.03;31.02;;;18.70;99.90;;;;;;5081640;28;20036;-55
2022/08/17 04:54:19;;;;;;;44.58;30.23;;;18.70;99.90;;;;;;5081296;28;20048;-55
2022/08/17 04:56:45;;;;;;;45.70;32.30;;;18.80;99.90;;;;;;5081473;28;20134;-56
2022/08/17 04:59:17;;;;;;;44.35;30.85;;;18.70;99.90;;;;;;5081644;28;20044;-55
2022/08/17 05:01:45;;;;;;;38.45;34.08;;;18.70;99.90;;;;;;5081826;28;20047;-55
2022/08/17 05:04:16;;;;;;;42.05;32.33;;;18.60;99.90;;;;;;5079939;28;20516;-55
2022/08/17 05:06:42;;;;;;;39.88;34.78;;;18.60;99.90;;;;;;5081170;28;20376;-55
2022/08/17 05:09:08;;;;;;;38.90;32.72;;;18.60;99.90;;;;;;5079400;28;20044;-56
2022/08/17 05:11:35;;;;;;;40.17;33.90;;;18.80;99.90;;;;;;5082182;28;20397;-55
2022/08/17 05:14:01;;;;;;;41.53;32.53;;;18.90;99.90;;;;;;5080816;28;20052;-55
2022/08/17 05:16:27;;;;;;;42.05;33.28;;;19.00;99.90;;;;;;5081721;28;20253;-56
2022/08/17 05:18:54;;;;;;;48.25;35.40;;;19.10;99.90;;;;;;5081533;28;20059;-56
2022/08/17 05:21:21;;;;;;;47.17;35.00;;;19.00;99.90;;;;;;5081309;28;20036;-54
2022/08/17 05:23:47;;;;;;;52.60;38.40;;;19.10;99.90;;;;;;5080394;28;20044;-56
2022/08/17 05:26:15;;;;;;;50.40;35.40;;;19.10;99.90;;;;;;5081526;28;20123;-55
2022/08/17 05:28:41;;;;;;;58.45;40.42;;;19.10;99.90;;;;;;5081431;28;20409;-56
2022/08/17 05:31:07;;;;;;;58.20;40.78;;;19.10;99.90;;;;;;5080757;28;20040;-54
2022/08/17 05:33:35;;;;;;;57.90;39.55;;;19.00;99.90;;;;;;5081783;28;20046;-55
2022/08/17 05:36:03;;;;;;;51.53;36.83;;;18.90;99.90;;;;;;5097316;28;20558;-55
2022/08/17 05:38:30;;;;;;;56.50;36.08;;;19.20;99.90;;;;;;5080543;28;20303;-56
2022/08/17 05:40:56;;;;;;;43.28;32.50;;;18.90;99.90;;;;;;5080968;28;20093;-55
2022/08/17 05:43:28;;;;;;;40.53;29.00;;;18.90;99.90;;;;;;5079834;28;20506;-57
2022/08/17 05:45:59;;;;;;;33.72;25.33;;;18.80;99.90;;;;;;5081248;28;20062;-55
2022/08/17 05:48:24;;;;;;;33.28;25.50;;;18.90;99.90;;;;;;5080277;28;20482;-57
2022/08/17 05:51:14;;;;;;;30.83;24.73;;;18.80;99.90;;;;;;5080080;28;20051;-55
2022/08/17 05:53:42;;;;;;;36.28;26.13;;;18.80;99.90;;;;;;5083857;28;20044;-55
2022/08/17 05:56:52;;;;;;;34.15;25.73;;;18.60;99.90;;;;;;5084735;28;20536;-56
2022/08/17 05:59:29;;;;;;;31.85;24.88;;;18.60;99.90;;;;;;5044275;28;20442;-55
2022/08/17 06:02:15;;;;;;;31.63;25.50;;;18.70;99.90;;;;;;5081641;28;20686;-55
2022/08/17 06:05:24;;;;;;;34.22;25.00;;;18.90;99.90;;;;;;5084198;28;20379;-56
2022/08/17 06:08:26;;;;;;;36.58;26.80;;;18.80;99.90;;;;;;5062645;28;20120;-55
2022/08/17 06:10:57;;;;;;;38.92;29.48;;;18.90;99.90;;;;;;5084644;28;20111;-55
2022/08/17 06:13:41;;;;;;;37.17;28.95;;;18.90;99.90;;;;;;5084232;28;20080;-56
2022/08/17 06:16:11;;;;;;;37.80;28.08;;;18.80;99.90;;;;;;5084344;28;20055;-55
2022/08/17 06:18:45;;;;;;;36.50;29.10;;;19.00;99.90;;;;;;5082359;28;20098;-55
2022/08/17 06:21:14;;;;;;;39.42;28.77;;;18.90;99.90;;;;;;5083068;28;20079;-56
2022/08/17 06:23:46;;;;;;;60.47;30.17;;;19.00;99.90;;;;;;5083521;28;20086;-56
2022/08/17 06:26:26;;;;;;;51.75;29.65;;;19.10;99.90;;;;;;5083685;28;20083;-56
2022/08/17 06:28:53;;;;;;;35.83;26.35;;;19.20;99.90;;;;;;5083256;28;20073;-56
2022/08/17 06:31:32;;;;;;;37.95;28.35;;;19.20;99.90;;;;;;5083911;28;20422;-56
2022/08/17 06:34:01;;;;;;;36.08;28.85;;;19.30;99.90;;;;;;5083850;28;20048;-56
2022/08/17 06:36:33;;;;;;;32.17;26.58;;;19.30;99.90;;;;;;5084002;28;20050;-56
2022/08/17 06:39:26;;;;;;;33.25;28.02;;;19.30;99.90;;;;;;5082818;28;20040;-57
2022/08/17 06:42:26;;;;;;;32.83;26.27;;;19.20;99.90;;;;;;5083839;28;20127;-56
2022/08/17 06:45:08;;;;;;;35.05;28.65;;;19.30;99.90;;;;;;5083843;28;20402;-56
2022/08/17 06:48:16;;;;;;;36.42;28.77;;;19.20;99.90;;;;;;5083448;28;20051;-54
2022/08/17 06:50:52;;;;;;;36.95;29.92;;;19.20;99.90;;;;;;5059962;28;20052;-55
2022/08/17 06:53:30;;;;;;;38.20;30.15;;;19.10;99.90;;;;;;5083126;28;20040;-56
2022/08/17 06:56:07;;;;;;;37.65;29.38;;;19.10;99.90;;;;;;5083790;28;20048;-55
2022/08/17 06:58:35;;;;;;;37.13;29.65;;;18.90;99.90;;;;;;5083901;28;20070;-55
2022/08/17 07:01:13;;;;;;;22.17;19.55;;;19.00;99.90;;;;;;5083411;28;20101;-56
2022/08/17 07:03:53;;;;;;;32.97;26.33;;;19.10;99.90;;;;;;5082762;28;20044;-57
2022/08/17 07:06:26;;;;;;;41.72;29.95;;;19.20;99.90;;;;;;5082595;28;20048;-53
2022/08/17 07:09:34;;;;;;;30.13;24.75;;;19.20;99.90;;;;;;5081307;28;20048;-57
2022/08/17 07:12:23;;;;;;;34.25;28.67;;;19.40;99.90;;;;;;5059816;28;20258;-57
2022/08/17 07:14:55;;;;;;;30.38;27.20;;;19.30;99.90;;;;;;5059699;28;20136;-57
2022/08/17 07:17:23;;;;;;;35.10;28.15;;;19.40;99.90;;;;;;5075967;28;20047;-57
2022/08/17 07:19:52;;;;;;;34.47;24.77;;;19.40;99.90;;;;;;5082682;28;20704;-61
2022/08/17 07:22:47;;;;;;;35.88;29.42;;;19.60;99.90;;;;;;5080929;28;20042;-61
2022/08/17 07:25:17;;;;;;;;;;;19.40;99.90;;;;;;5083236;28;20036;-62
2022/08/17 07:27:54;;;;;;;32.50;26.55;;;19.60;99.90;;;;;;5083005;28;19920;-62
2022/08/17 07:30:28;;;;;;;25.42;21.83;;;19.80;99.90;;;;;;5082714;28;20048;-62
2022/08/17 07:32:57;;;;;;;26.83;22.15;;;19.80;99.90;;;;;;5082230;28;20052;-63
2022/08/17 07:35:29;;;;;;;26.05;20.73;;;19.90;99.90;;;;;;5082838;28;20075;-62
2022/08/17 07:38:09;;;;;;;23.40;21.00;;;19.90;99.90;;;;;;5082057;28;20071;-62
2022/08/17 07:41:04;;;;;;;26.58;23.75;;;20.10;99.90;;;;;;5083171;28;20898;-62
2022/08/17 07:43:36;;;;;;;27.02;24.30;;;20.20;99.90;;;;;;5079761;28;20057;-62
2022/08/17 07:49:06;;;;;;;27.75;24.83;;;20.00;99.90;;;;;;5081831;28;20048;-62
2022/08/17 07:51:47;;;;;;;28.60;25.45;;;19.80;99.90;;;;;;5082938;28;20402;-62
2022/08/17 07:54:21;;;;;;;28.52;24.35;;;20.00;99.90;;;;;;5082141;28;20269;-54
2022/08/17 07:57:23;;;;;;;30.75;27.45;;;20.10;99.90;;;;;;5082480;28;20051;-55
2022/08/17 08:00:01;;;;;;;31.90;25.52;;;20.30;99.90;;;;;;5078947;28;20148;-56
2022/08/17 08:02:33;;;;;;;31.63;26.50;;;20.50;99.90;;;;;;5082183;28;20047;-55
2022/08/17 08:05:17;;;;;;;30.95;25.70;;;20.50;99.90;;;;;;5082265;28;20043;-55
2022/08/17 08:07:53;;;;;;;33.05;26.55;;;20.50;99.90;;;;;;5081393;28;20047;-57
2022/08/17 08:10:26;;;;;;;30.95;25.67;;;20.50;99.90;;;;;;5082211;28;20144;-55
2022/08/17 08:13:08;;;;;;;31.98;25.00;;;20.50;99.90;;;;;;5082323;28;20414;-57
2022/08/17 08:15:38;;;;;;;30.15;25.40;;;20.60;99.90;;;;;;5081936;28;20445;-55
2022/08/17 08:18:19;;;;;;;34.25;25.15;;;20.60;99.90;;;;;;5081825;28;20048;-56
2022/08/17 08:20:50;;;;;;;31.25;25.08;;;20.70;99.90;;;;;;5082248;28;20548;-55
2022/08/17 08:23:30;;;;;;;34.72;25.95;;;20.70;99.90;;;;;;5080978;28;20485;-56
2022/08/17 08:26:17;;;;;;;36.40;27.80;;;20.80;99.90;;;;;;5081846;28;20047;-56
2022/08/17 08:28:59;;;;;;;37.45;29.38;;;20.80;99.90;;;;;;5081584;28;20052;-58
2022/08/17 08:31:46;;;;;;;39.60;30.75;;;20.70;99.90;;;;;;5081882;28;20055;-56
2022/08/17 08:34:23;;;;;;;40.13;31.02;;;20.70;99.90;;;;;;5081633;28;20428;-56
2022/08/17 08:37:07;;;;;;;38.38;30.27;;;20.70;99.90;;;;;;5079728;28;20052;-57
2022/08/17 08:40:01;;;;;;;40.53;32.13;;;20.70;99.90;;;;;;5081770;28;20044;-55
2022/08/17 08:43:02;;;;;;;37.58;31.98;;;20.60;99.90;;;;;;5081473;28;20048;-56
2022/08/17 08:45:34;;;;;;;39.28;30.20;;;20.70;99.90;;;;;;5078522;28;20459;-55
2022/08/17 08:48:19;;;;;;;38.10;31.98;;;20.70;99.90;;;;;;5081925;28;20079;-57
2022/08/17 08:50:58;;;;;;;38.15;31.67;;;20.90;99.90;;;;;;5081927;28;20420;-56
2022/08/17 08:53:41;;;;;;;35.30;28.48;;;21.10;99.90;;;;;;5080821;28;20066;-56
2022/08/17 08:56:30;;;;;;;35.33;29.92;;;21.40;99.90;;;;;;5081998;28;20043;-53
2022/08/17 08:59:07;;;;;;;37.17;31.90;;;21.80;99.90;;;;;;5081336;28;20449;-57
2022/08/17 09:01:49;;;;;;;39.88;31.73;;;22.20;99.90;;;;;;5081672;28;20881;-55
2022/08/17 09:04:14;;;;;;;40.85;31.67;;;22.30;99.90;;;;;;5081292;28;20133;-57
2022/08/17 09:06:46;;;;;;;41.95;34.10;;;22.60;99.90;;;;;;5080339;28;20177;-56
2022/08/17 09:09:59;;;;;;;39.70;33.17;;;22.70;99.90;;;;;;5081747;28;20058;-56
2022/08/17 09:12:33;;;;;;;37.97;31.95;;;22.60;99.90;;;;;;5080167;28;20165;-56
2022/08/17 09:15:20;;;;;;;38.95;32.65;;;22.40;99.90;;;;;;5079957;28;20139;-56
2022/08/17 09:17:59;;;;;;;38.33;30.75;;;22.40;99.90;;;;;;5081041;28;20245;-56
2022/08/17 09:21:00;;;;;;;35.88;30.92;;;22.30;99.90;;;;;;5080888;28;20043;-57
2022/08/17 09:23:38;;;;;;;42.55;32.38;;;22.40;99.90;;;;;;5068477;28;20403;-56
2022/08/17 09:26:22;;;;;;;39.38;28.92;;;22.50;99.90;;;;;;5083950;28;20048;-57
2022/08/17 09:29:00;;;;;;;34.95;28.23;;;22.70;99.90;;;;;;5085327;28;20085;-57
2022/08/17 09:31:37;;;;;;;28.70;25.50;;;22.80;99.90;;;;;;5084954;28;20391;-57
2022/08/17 09:34:12;;;;;;;35.10;28.88;;;22.90;99.90;;;;;;5085417;28;20047;-57
2022/08/17 09:36:48;;;;;;;40.28;32.08;;;22.90;99.90;;;;;;5083670;28;20166;-57
2022/08/17 09:39:31;;;;;;;38.78;32.53;;;23.00;99.90;;;;;;5076541;28;20549;-55
2022/08/17 09:42:01;;;;;;;40.58;34.42;;;23.20;99.90;;;;;;5084173;28;20048;-57
2022/08/17 09:44:50;;;;;;;41.03;32.80;;;23.30;99.90;;;;;;5082505;28;20118;-57
2022/08/17 09:47:45;;;;;;;40.40;33.63;;;23.30;99.90;;;;;;5084587;28;20693;-57
2022/08/17 09:51:00;;;;;;;39.03;32.83;;;23.20;99.90;;;;;;5083118;28;20074;-58
2022/08/17 09:53:26;;;;;;;38.80;33.58;;;23.10;99.90;;;;;;5075195;28;20060;-57
2022/08/17 09:56:25;;;;;;;39.65;32.70;;;23.00;99.90;;;;;;5082470;28;20534;-57
2022/08/17 09:58:58;;;;;;;41.35;34.55;;;22.90;99.90;;;;;;5054568;28;20084;-57
2022/08/17 10:01:41;;;;;;;40.97;34.53;;;22.90;99.90;;;;;;5063759;28;20044;-56
2022/08/17 10:04:21;;;;;;;44.20;35.22;;;23.00;99.90;;;;;;5063845;28;20123;-60
2022/08/17 10:07:19;;;;;;;41.75;34.80;;;23.00;99.90;;;;;;5076413;28;20048;-57
2022/08/17 10:10:03;;;;;;;44.75;35.63;;;23.00;99.90;;;;;;5064004;28;20658;-57
2022/08/17 10:12:46;;;;;;;46.90;39.25;;;23.00;99.90;;;;;;5063584;28;20057;-57
2022/08/17 10:15:45;;;;;;;48.38;37.92;;;23.10;99.90;;;;;;5063529;28;20090;-57
2022/08/17 10:18:38;;;;;;;49.60;38.90;;;23.30;99.90;;;;;;5063834;28;20048;-57
2022/08/17 10:27:11;;;;;;;51.60;42.13;;;23.60;99.90;;;;;;5076709;28;20056;-58
2022/08/17 10:29:43;;;;;;;47.55;40.00;;;23.60;99.90;;;;;;5077080;28;20491;-58
2022/08/17 10:32:14;;;;;;;48.15;41.17;;;23.50;99.90;;;;;;4184687;28;10000967;-55
2022/08/17 10:34:59;;;;;;;55.88;43.92;;;23.60;99.90;;;;;;5062334;28;20047;-57
2022/08/17 10:37:33;;;;;;;46.95;40.38;;;23.60;99.90;;;;;;5061855;28;20422;-57
2022/08/17 10:40:08;;;;;;;50.35;40.10;;;23.70;99.90;;;;;;5064120;28;20303;-57
2022/08/17 10:42:36;;;;;;;47.55;40.88;;;23.70;99.90;;;;;;5062518;28;20059;-57
2022/08/17 10:45:13;;;;;;;46.70;41.53;;;23.60;99.90;;;;;;5062750;28;20056;-58
2022/08/17 10:48:29;;;;;;;47.50;39.88;;;23.70;99.90;;;;;;5063267;28;20048;-58
2022/08/17 10:50:55;;;;;;;47.70;40.78;;;23.70;99.90;;;;;;4980931;28;20568;-61
2022/08/17 10:53:38;;;;;;;46.13;38.03;;;23.70;99.90;;;;;;5061629;28;20056;-58
2022/08/17 10:56:14;;;;;;;44.42;39.58;;;23.60;99.90;;;;;;5061808;28;20512;-58
2022/08/17 10:58:53;;;;;;;43.42;38.25;;;23.70;99.90;;;;;;5061240;28;20063;-58
2022/08/17 11:01:30;;;;;;;44.05;38.30;;;23.70;99.90;;;;;;5063276;28;20045;-59
2022/08/17 11:04:02;;;;;;;45.85;37.47;;;23.70;99.90;;;;;;5062427;28;20475;-58
2022/08/17 11:06:48;;;;;;;40.47;36.08;;;23.80;99.90;;;;;;5059819;28;20093;-58
2022/08/17 11:09:50;;;;;;;44.03;37.38;;;23.70;99.90;;;;;;5058369;28;20143;-58
2022/08/17 11:12:36;;;;;;;41.70;36.63;;;23.70;99.90;;;;;;5062016;28;20047;-58
2022/08/17 11:15:27;;;;;;;41.28;36.90;;;23.60;99.90;;;;;;5062555;28;20049;-58
2022/08/17 11:18:17;;;;;;;41.67;37.25;;;23.70;99.90;;;;;;5042726;28;20052;-58
2022/08/17 11:21:07;;;;;;;41.63;37.08;;;23.60;99.90;;;;;;5061881;28;20784;-58
2022/08/17 11:23:45;;;;;;;41.63;37.28;;;23.60;99.90;;;;;;5062458;28;20053;-58
2022/08/17 11:26:24;;;;;;;41.80;37.13;;;23.60;99.90;;;;;;5061914;28;20040;-58
2022/08/17 11:28:55;;;;;;;35.38;30.65;;;23.60;99.90;;;;;;5061892;28;20060;-70
2022/08/17 11:31:26;;;;;;;39.28;35.08;;;23.80;99.90;;;;;;5062530;28;20068;-71
2022/08/17 11:34:20;;;;;;;39.08;34.85;;;23.80;99.90;;;;;;5063360;28;20540;-70
2022/08/17 11:37:00;;;;;;;43.40;35.95;;;23.90;99.90;;;;;;5062060;28;20124;-71
2022/08/17 11:39:54;;;;;;;40.10;35.55;;;24.00;99.90;;;;;;5062905;28;20885;-69
2022/08/17 11:42:36;;;;;;;42.55;37.63;;;24.10;99.90;;;;;;5062921;28;20044;-69
2022/08/17 11:45:20;;;;;;;41.22;36.08;;;24.20;99.90;;;;;;5063298;28;20044;-69
2022/08/17 11:53:50;;;;;;;39.58;35.40;;;24.30;99.90;;;;;;5060755;28;20455;-69
2022/08/17 11:56:40;;;;;;;38.65;34.65;;;24.40;99.90;;;;;;5062782;28;20051;-70
2022/08/17 11:59:39;;;;;;;38.55;34.45;;;24.50;99.90;;;;;;5062697;28;20514;-60
2022/08/17 12:02:29;;;;;;;39.28;34.45;;;24.50;99.90;;;;;;5037302;28;20067;-68
2022/08/17 12:05:01;;;;;;;37.90;33.88;;;24.50;99.90;;;;;;5062542;28;20680;-69
2022/08/17 12:07:31;;;;;;;35.95;31.83;;;24.50;99.90;;;;;;5061155;28;20148;-68
2022/08/17 12:09:58;;;;;;;35.67;31.98;;;24.60;99.90;;;;;;5062274;28;20782;-63
2022/08/17 12:12:34;;;;;;;34.90;31.33;;;24.50;99.90;;;;;;5062265;28;20052;-69
2022/08/17 12:15:02;;;;;;;37.25;32.17;;;24.50;99.90;;;;;;5062069;28;20127;-69
2022/08/17 12:17:31;;;;;;;34.13;30.58;;;24.50;99.90;;;;;;5061967;28;20427;-68
2022/08/17 12:20:26;;;;;;;33.13;29.67;;;24.40;99.90;;;;;;5062606;28;20902;-68
2022/08/17 12:23:22;;;;;;;32.50;29.05;;;24.40;99.90;;;;;;5061199;28;20458;-69
2022/08/17 12:26:12;;;;;;;30.00;26.95;;;24.50;99.90;;;;;;5060844;28;20046;-69
2022/08/17 12:28:44;;;;;;;27.80;25.00;;;24.50;99.90;;;;;;5062389;28;20178;-70
2022/08/17 12:31:27;;;;;;;27.55;24.73;;;24.50;99.90;;;;;;5077529;28;20040;-69
2022/08/17 12:33:53;;;;;;;27.40;24.55;;;24.40;99.90;;;;;;5061824;28;20079;-69
2022/08/17 12:36:23;;;;;;;25.73;23.05;;;24.40;99.90;;;;;;5061263;28;20510;-66
2022/08/17 12:39:06;;;;;;;26.95;24.20;;;24.50;99.90;;;;;;5062540;28;20055;-69
2022/08/17 12:41:39;;;;;;;28.05;24.77;;;24.40;99.90;;;;;;5062595;28;20047;-69
2022/08/17 12:44:18;;;;;;;27.75;24.95;;;24.40;99.90;;;;;;5062727;28;20049;-67
2022/08/17 12:47:05;;;;;;;28.52;25.45;;;24.20;99.90;;;;;;5060210;28;20055;-69
2022/08/17 12:49:41;;;;;;;29.05;26.17;;;24.20;99.90;;;;;;5060900;28;20513;-71
2022/08/17 12:52:15;;;;;;;28.48;25.70;;;24.20;99.90;;;;;;5060878;28;20079;-60
2022/08/17 12:55:20;;;;;;;30.05;27.13;;;24.30;99.90;;;;;;5061748;28;20074;-68
2022/08/17 12:57:52;;;;;;;29.77;26.73;;;24.20;99.90;;;;;;5058660;28;20091;-68
2022/08/17 13:00:20;;;;;;;29.17;26.25;;;24.20;99.90;;;;;;5063327;28;20411;-63
2022/08/17 13:02:48;;;;;;;28.90;26.02;;;24.30;99.90;;;;;;5064291;28;20098;-71
2022/08/17 13:05:18;;;;;;;33.17;27.17;;;24.20;99.90;;;;;;5065869;28;20045;-72
2022/08/17 13:07:45;;;;;;;28.85;25.88;;;24.10;99.90;;;;;;5064574;28;20135;-72
2022/08/17 13:10:25;;;;;;;30.83;27.42;;;24.10;99.90;;;;;;5065809;28;20048;-71
2022/08/17 13:12:52;;;;;;;29.70;26.48;;;24.20;99.90;;;;;;5065902;28;20049;-73
2022/08/17 13:15:31;;;;;;;28.77;25.95;;;24.10;99.90;;;;;;5063139;28;20049;-72
2022/08/17 13:18:04;;;;;;;28.67;25.85;;;24.00;99.90;;;;;;5062140;28;20067;-69
2022/08/17 13:20:30;;;;;;;28.40;25.30;;;24.00;99.90;;;;;;5061296;28;20161;-70
2022/08/17 13:22:58;;;;;;;26.30;23.60;;;24.10;99.90;;;;;;5059871;28;20671;-72
2022/08/17 13:25:26;;;;;;;27.52;24.65;;;24.10;99.90;;;;;;5060692;28;20048;-72
2022/08/17 13:27:53;;;;;;;27.02;24.08;;;24.10;99.90;;;;;;5061792;28;20462;-72
2022/08/17 13:30:23;;;;;;;26.10;23.17;;;24.10;99.90;;;;;;5061943;28;20040;-60
2022/08/17 13:32:49;;;;;;;25.92;23.35;;;24.10;99.90;;;;;;5060496;28;20059;-73
2022/08/17 13:35:36;;;;;;;25.13;22.42;;;24.00;99.90;;;;;;5061009;28;20437;-73
2022/08/17 13:38:06;;;;;;;25.60;22.75;;;24.10;99.90;;;;;;5060632;28;20113;-72